sensor_id;sensor_type;location;lat;lon;timestamp;P1;durP1;ratioP1;P2;durP2;ratioP2
6735;SDS011;3405;50.576;12.364;2023-04-01T00:00:06;0.35;;;0.35;;
6735;SDS011;3405;50.576;12.364;2023-04-01T00:02:33;0.32;;;0.30;;
6735;SDS011;3405;50.576;12.364;2023-04-01T00:04:59;0.50;;;0.40;;
6735;SDS011;3405;50.576;12.364;2023-04-01T00:07:25;0.52;;;0.40;;
6735;SDS011;3405;50.576;12.364;2023-04-01T00:09:50;0.52;;;0.47;;
6735;SDS011;3405;50.576;12.364;2023-04-01T00:12:16;0.20;;;0.20;;
6735;SDS011;3405;50.576;12.364;2023-04-01T00:14:42;1.10;;;0.50;;
6735;SDS011;3405;50.576;12.364;2023-04-01T00:17:08;0.65;;;0.57;;
6735;SDS011;3405;50.576;12.364;2023-04-01T00:19:34;0.50;;;0.50;;
6735;SDS011;3405;50.576;12.364;2023-04-01T00:22:00;0.40;;;0.40;;
6735;SDS011;3405;50.576;12.364;2023-04-01T00:24:26;0.40;;;0.40;;
6735;SDS011;3405;50.576;12.364;2023-04-01T00:26:52;0.95;;;0.60;;
6735;SDS011;3405;50.576;12.364;2023-04-01T00:29:18;0.50;;;0.50;;
6735;SDS011;3405;50.576;12.364;2023-04-01T00:31:44;0.55;;;0.35;;
6735;SDS011;3405;50.576;12.364;2023-04-01T00:34:10;0.40;;;0.40;;
6735;SDS011;3405;50.576;12.364;2023-04-01T00:36:37;0.85;;;0.30;;
6735;SDS011;3405;50.576;12.364;2023-04-01T00:39:03;1.23;;;0.40;;
6735;SDS011;3405;50.576;12.364;2023-04-01T00:41:29;0.60;;;0.50;;
6735;SDS011;3405;50.576;12.364;2023-04-01T00:46:39;0.30;;;0.30;;
6735;SDS011;3405;50.576;12.364;2023-04-01T00:49:05;1.25;;;0.50;;
6735;SDS011;3405;50.576;12.364;2023-04-01T00:51:31;0.68;;;0.57;;
6735;SDS011;3405;50.576;12.364;2023-04-01T00:53:58;0.65;;;0.40;;
6735;SDS011;3405;50.576;12.364;2023-04-01T00:56:33;0.32;;;0.32;;
6735;SDS011;3405;50.576;12.364;2023-04-01T00:59:01;0.82;;;0.40;;
6735;SDS011;3405;50.576;12.364;2023-04-01T01:01:30;0.50;;;0.32;;
6735;SDS011;3405;50.576;12.364;2023-04-01T01:03:56;1.13;;;0.70;;
6735;SDS011;3405;50.576;12.364;2023-04-01T01:09:02;1.25;;;0.50;;
6735;SDS011;3405;50.576;12.364;2023-04-01T01:11:36;0.40;;;0.40;;
6735;SDS011;3405;50.576;12.364;2023-04-01T01:14:09;0.68;;;0.45;;
6735;SDS011;3405;50.576;12.364;2023-04-01T01:16:41;1.67;;;0.40;;
6735;SDS011;3405;50.576;12.364;2023-04-01T01:19:25;0.30;;;0.30;;
6735;SDS011;3405;50.576;12.364;2023-04-01T01:21:58;0.40;;;0.40;;
6735;SDS011;3405;50.576;12.364;2023-04-01T01:24:30;0.57;;;0.57;;
6735;SDS011;3405;50.576;12.364;2023-04-01T01:37:26;0.35;;;0.35;;
6735;SDS011;3405;50.576;12.364;2023-04-01T01:39:54;0.90;;;0.40;;
6735;SDS011;3405;50.576;12.364;2023-04-01T01:42:21;0.25;;;0.25;;
6735;SDS011;3405;50.576;12.364;2023-04-01T01:44:48;1.42;;;0.50;;
6735;SDS011;3405;50.576;12.364;2023-04-01T01:47:15;0.28;;;0.28;;
6735;SDS011;3405;50.576;12.364;2023-04-01T01:49:42;1.08;;;0.40;;
6735;SDS011;3405;50.576;12.364;2023-04-01T01:52:09;0.50;;;0.50;;
6735;SDS011;3405;50.576;12.364;2023-04-01T01:54:35;0.30;;;0.30;;
6735;SDS011;3405;50.576;12.364;2023-04-01T01:57:07;1.27;;;0.55;;
6735;SDS011;3405;50.576;12.364;2023-04-01T01:59:35;0.60;;;0.50;;
6735;SDS011;3405;50.576;12.364;2023-04-01T02:02:02;0.35;;;0.30;;
6735;SDS011;3405;50.576;12.364;2023-04-01T02:04:33;0.60;;;0.30;;
6735;SDS011;3405;50.576;12.364;2023-04-01T02:07:01;0.47;;;0.38;;
6735;SDS011;3405;50.576;12.364;2023-04-01T02:09:28;0.50;;;0.30;;
6735;SDS011;3405;50.576;12.364;2023-04-01T02:11:56;0.50;;;0.50;;
6735;SDS011;3405;50.576;12.364;2023-04-01T02:14:45;0.75;;;0.30;;
6735;SDS011;3405;50.576;12.364;2023-04-01T02:17:10;0.57;;;0.30;;
6735;SDS011;3405;50.576;12.364;2023-04-01T02:19:46;0.38;;;0.38;;
6735;SDS011;3405;50.576;12.364;2023-04-01T02:22:14;0.85;;;0.30;;
6735;SDS011;3405;50.576;12.364;2023-04-01T02:24:42;0.30;;;0.30;;
6735;SDS011;3405;50.576;12.364;2023-04-01T02:27:10;0.47;;;0.38;;
6735;SDS011;3405;50.576;12.364;2023-04-01T02:29:36;1.05;;;0.50;;
6735;SDS011;3405;50.576;12.364;2023-04-01T02:32:03;0.50;;;0.30;;
6735;SDS011;3405;50.576;12.364;2023-04-01T02:34:30;0.75;;;0.60;;
6735;SDS011;3405;50.576;12.364;2023-04-01T02:36:55;0.65;;;0.52;;
6735;SDS011;3405;50.576;12.364;2023-04-01T02:39:22;0.38;;;0.38;;
6735;SDS011;3405;50.576;12.364;2023-04-01T02:41:50;0.63;;;0.40;;
6735;SDS011;3405;50.576;12.364;2023-04-01T02:44:16;0.93;;;0.40;;
6735;SDS011;3405;50.576;12.364;2023-04-01T02:46:42;1.05;;;0.50;;
6735;SDS011;3405;50.576;12.364;2023-04-01T02:49:08;0.73;;;0.57;;
6735;SDS011;3405;50.576;12.364;2023-04-01T02:51:34;0.10;;;0.10;;
6735;SDS011;3405;50.576;12.364;2023-04-01T02:54:00;0.63;;;0.40;;
6735;SDS011;3405;50.576;12.364;2023-04-01T02:56:25;0.50;;;0.38;;
6735;SDS011;3405;50.576;12.364;2023-04-01T02:58:52;0.70;;;0.35;;
6735;SDS011;3405;50.576;12.364;2023-04-01T03:01:18;0.65;;;0.50;;
6735;SDS011;3405;50.576;12.364;2023-04-01T03:03:44;0.30;;;0.30;;
6735;SDS011;3405;50.576;12.364;2023-04-01T03:06:11;0.32;;;0.30;;
6735;SDS011;3405;50.576;12.364;2023-04-01T03:08:37;1.10;;;0.40;;
6735;SDS011;3405;50.576;12.364;2023-04-01T03:11:03;0.70;;;0.30;;
6735;SDS011;3405;50.576;12.364;2023-04-01T03:13:30;0.55;;;0.40;;
6735;SDS011;3405;50.576;12.364;2023-04-01T03:15:55;0.20;;;0.20;;
6735;SDS011;3405;50.576;12.364;2023-04-01T03:18:21;0.43;;;0.20;;
6735;SDS011;3405;50.576;12.364;2023-04-01T03:20:47;0.75;;;0.30;;
6735;SDS011;3405;50.576;12.364;2023-04-01T03:23:13;0.70;;;0.30;;
6735;SDS011;3405;50.576;12.364;2023-04-01T03:25:42;0.32;;;0.22;;
6735;SDS011;3405;50.576;12.364;2023-04-01T03:28:08;0.93;;;0.43;;
6735;SDS011;3405;50.576;12.364;2023-04-01T03:30:33;0.40;;;0.30;;
6735;SDS011;3405;50.576;12.364;2023-04-01T03:33:00;0.32;;;0.30;;
6735;SDS011;3405;50.576;12.364;2023-04-01T03:35:26;0.80;;;0.50;;
6735;SDS011;3405;50.576;12.364;2023-04-01T03:37:52;1.00;;;0.57;;
6735;SDS011;3405;50.576;12.364;2023-04-01T03:40:18;0.52;;;0.47;;
6735;SDS011;3405;50.576;12.364;2023-04-01T03:42:44;0.70;;;0.50;;
6735;SDS011;3405;50.576;12.364;2023-04-01T03:45:10;0.45;;;0.25;;
6735;SDS011;3405;50.576;12.364;2023-04-01T03:47:39;0.45;;;0.38;;
6735;SDS011;3405;50.576;12.364;2023-04-01T03:50:06;1.05;;;0.30;;
6735;SDS011;3405;50.576;12.364;2023-04-01T03:52:33;0.75;;;0.20;;
6735;SDS011;3405;50.576;12.364;2023-04-01T03:54:59;0.30;;;0.20;;
6735;SDS011;3405;50.576;12.364;2023-04-01T03:57:25;1.50;;;0.40;;
6735;SDS011;3405;50.576;12.364;2023-04-01T03:59:51;0.63;;;0.40;;
6735;SDS011;3405;50.576;12.364;2023-04-01T04:02:17;0.25;;;0.25;;
6735;SDS011;3405;50.576;12.364;2023-04-01T04:04:43;0.63;;;0.15;;
6735;SDS011;3405;50.576;12.364;2023-04-01T04:07:09;0.50;;;0.40;;
6735;SDS011;3405;50.576;12.364;2023-04-01T04:09:35;0.57;;;0.35;;
6735;SDS011;3405;50.576;12.364;2023-04-01T04:12:01;0.20;;;0.20;;
6735;SDS011;3405;50.576;12.364;2023-04-01T04:14:27;1.20;;;0.30;;
6735;SDS011;3405;50.576;12.364;2023-04-01T04:16:53;0.25;;;0.25;;
6735;SDS011;3405;50.576;12.364;2023-04-01T04:19:19;0.28;;;0.28;;
6735;SDS011;3405;50.576;12.364;2023-04-01T04:21:45;0.40;;;0.40;;
6735;SDS011;3405;50.576;12.364;2023-04-01T04:24:11;1.48;;;0.40;;
6735;SDS011;3405;50.576;12.364;2023-04-01T04:26:37;0.40;;;0.40;;
6735;SDS011;3405;50.576;12.364;2023-04-01T04:29:03;1.92;;;0.40;;
6735;SDS011;3405;50.576;12.364;2023-04-01T04:31:29;0.50;;;0.40;;
6735;SDS011;3405;50.576;12.364;2023-04-01T04:33:55;0.28;;;0.28;;
6735;SDS011;3405;50.576;12.364;2023-04-01T04:36:21;1.08;;;0.40;;
6735;SDS011;3405;50.576;12.364;2023-04-01T04:38:47;0.75;;;0.43;;
6735;SDS011;3405;50.576;12.364;2023-04-01T04:41:14;1.35;;;0.50;;
6735;SDS011;3405;50.576;12.364;2023-04-01T04:43:40;4.22;;;0.45;;
6735;SDS011;3405;50.576;12.364;2023-04-01T04:46:07;0.95;;;0.60;;
6735;SDS011;3405;50.576;12.364;2023-04-01T04:48:33;3.70;;;0.93;;
6735;SDS011;3405;50.576;12.364;2023-04-01T04:50:59;4.28;;;1.00;;
6735;SDS011;3405;50.576;12.364;2023-04-01T04:53:25;7.10;;;1.60;;
6735;SDS011;3405;50.576;12.364;2023-04-01T04:55:51;3.45;;;0.95;;
6735;SDS011;3405;50.576;12.364;2023-04-01T04:58:17;4.80;;;1.17;;
6735;SDS011;3405;50.576;12.364;2023-04-01T05:00:43;6.68;;;1.08;;
6735;SDS011;3405;50.576;12.364;2023-04-01T05:03:09;5.82;;;1.13;;
6735;SDS011;3405;50.576;12.364;2023-04-01T05:05:36;3.42;;;1.10;;
6735;SDS011;3405;50.576;12.364;2023-04-01T05:08:01;3.55;;;1.23;;
6735;SDS011;3405;50.576;12.364;2023-04-01T05:10:27;4.25;;;1.33;;
6735;SDS011;3405;50.576;12.364;2023-04-01T05:12:53;3.97;;;1.23;;
6735;SDS011;3405;50.576;12.364;2023-04-01T05:15:19;8.88;;;1.40;;
6735;SDS011;3405;50.576;12.364;2023-04-01T05:17:45;6.18;;;1.08;;
6735;SDS011;3405;50.576;12.364;2023-04-01T05:20:12;8.57;;;1.35;;
6735;SDS011;3405;50.576;12.364;2023-04-01T05:22:38;4.40;;;1.33;;
6735;SDS011;3405;50.576;12.364;2023-04-01T05:25:04;6.22;;;1.50;;
6735;SDS011;3405;50.576;12.364;2023-04-01T05:27:30;7.15;;;1.42;;
6735;SDS011;3405;50.576;12.364;2023-04-01T05:29:56;5.93;;;1.10;;
6735;SDS011;3405;50.576;12.364;2023-04-01T05:32:22;10.07;;;1.65;;
6735;SDS011;3405;50.576;12.364;2023-04-01T05:34:51;5.90;;;0.93;;
6735;SDS011;3405;50.576;12.364;2023-04-01T05:37:17;5.47;;;1.20;;
6735;SDS011;3405;50.576;12.364;2023-04-01T05:39:43;2.65;;;1.10;;
6735;SDS011;3405;50.576;12.364;2023-04-01T05:42:09;4.32;;;1.00;;
6735;SDS011;3405;50.576;12.364;2023-04-01T05:44:35;5.00;;;0.88;;
6735;SDS011;3405;50.576;12.364;2023-04-01T05:47:02;2.95;;;0.63;;
6735;SDS011;3405;50.576;12.364;2023-04-01T05:49:29;3.58;;;1.23;;
6735;SDS011;3405;50.576;12.364;2023-04-01T05:51:55;4.20;;;0.85;;
6735;SDS011;3405;50.576;12.364;2023-04-01T05:54:21;2.03;;;1.00;;
6735;SDS011;3405;50.576;12.364;2023-04-01T05:56:48;2.22;;;0.80;;
6735;SDS011;3405;50.576;12.364;2023-04-01T05:59:14;1.10;;;0.70;;
6735;SDS011;3405;50.576;12.364;2023-04-01T06:01:40;6.30;;;1.10;;
6735;SDS011;3405;50.576;12.364;2023-04-01T06:04:06;1.55;;;0.65;;
6735;SDS011;3405;50.576;12.364;2023-04-01T06:06:32;2.55;;;0.95;;
6735;SDS011;3405;50.576;12.364;2023-04-01T06:09:05;4.55;;;1.05;;
6735;SDS011;3405;50.576;12.364;2023-04-01T06:11:37;5.25;;;0.95;;
6735;SDS011;3405;50.576;12.364;2023-04-01T06:14:08;1.67;;;0.80;;
6735;SDS011;3405;50.576;12.364;2023-04-01T06:16:49;3.78;;;0.88;;
6735;SDS011;3405;50.576;12.364;2023-04-01T06:19:28;2.80;;;0.73;;
6735;SDS011;3405;50.576;12.364;2023-04-01T06:22:08;4.07;;;1.10;;
6735;SDS011;3405;50.576;12.364;2023-04-01T06:27:26;4.38;;;0.80;;
6735;SDS011;3405;50.576;12.364;2023-04-01T06:29:58;0.98;;;0.60;;
6735;SDS011;3405;50.576;12.364;2023-04-01T06:33:12;1.77;;;0.98;;
6735;SDS011;3405;50.576;12.364;2023-04-01T06:35:17;1.08;;;0.60;;
6735;SDS011;3405;50.576;12.364;2023-04-01T06:38:03;2.50;;;1.10;;
6735;SDS011;3405;50.576;12.364;2023-04-01T06:45:41;1.65;;;0.57;;
6735;SDS011;3405;50.576;12.364;2023-04-01T06:48:17;4.80;;;0.80;;
6735;SDS011;3405;50.576;12.364;2023-04-01T06:53:19;2.40;;;0.70;;
6735;SDS011;3405;50.576;12.364;2023-04-01T06:55:47;2.88;;;0.90;;
6735;SDS011;3405;50.576;12.364;2023-04-01T06:58:19;2.53;;;0.80;;
6735;SDS011;3405;50.576;12.364;2023-04-01T07:00:47;2.42;;;0.90;;
6735;SDS011;3405;50.576;12.364;2023-04-01T07:03:26;1.75;;;0.80;;
6735;SDS011;3405;50.576;12.364;2023-04-01T07:05:56;1.25;;;0.50;;
6735;SDS011;3405;50.576;12.364;2023-04-01T07:08:24;2.13;;;0.50;;
6735;SDS011;3405;50.576;12.364;2023-04-01T07:10:53;2.85;;;0.73;;
6735;SDS011;3405;50.576;12.364;2023-04-01T07:18:37;1.67;;;0.60;;
6735;SDS011;3405;50.576;12.364;2023-04-01T07:21:06;3.40;;;0.50;;
6735;SDS011;3405;50.576;12.364;2023-04-01T07:23:39;0.82;;;0.47;;
6735;SDS011;3405;50.576;12.364;2023-04-01T07:26:19;3.83;;;0.85;;
6735;SDS011;3405;50.576;12.364;2023-04-01T07:28:48;1.55;;;0.77;;
6735;SDS011;3405;50.576;12.364;2023-04-01T07:34:07;1.50;;;0.70;;
6735;SDS011;3405;50.576;12.364;2023-04-01T07:36:45;2.72;;;0.50;;
6735;SDS011;3405;50.576;12.364;2023-04-01T07:39:17;3.03;;;0.70;;
6735;SDS011;3405;50.576;12.364;2023-04-01T07:49:32;1.77;;;0.60;;
6735;SDS011;3405;50.576;12.364;2023-04-01T07:52:19;2.83;;;0.60;;
6735;SDS011;3405;50.576;12.364;2023-04-01T07:54:49;2.15;;;1.02;;
6735;SDS011;3405;50.576;12.364;2023-04-01T08:00:01;2.65;;;1.02;;
6735;SDS011;3405;50.576;12.364;2023-04-01T08:05:06;3.75;;;0.80;;
6735;SDS011;3405;50.576;12.364;2023-04-01T08:07:41;1.40;;;0.60;;
6735;SDS011;3405;50.576;12.364;2023-04-01T08:10:17;3.60;;;0.70;;
6735;SDS011;3405;50.576;12.364;2023-04-01T08:18:22;2.88;;;0.73;;
6735;SDS011;3405;50.576;12.364;2023-04-01T08:20:53;1.30;;;0.70;;
6735;SDS011;3405;50.576;12.364;2023-04-01T08:23:31;3.60;;;0.70;;
6735;SDS011;3405;50.576;12.364;2023-04-01T08:26:10;1.13;;;0.73;;
6735;SDS011;3405;50.576;12.364;2023-04-01T08:31:12;2.17;;;0.60;;
6735;SDS011;3405;50.576;12.364;2023-04-01T08:33:39;2.60;;;0.60;;
6735;SDS011;3405;50.576;12.364;2023-04-01T08:36:08;2.53;;;0.80;;
6735;SDS011;3405;50.576;12.364;2023-04-01T08:38:44;0.85;;;0.75;;
6735;SDS011;3405;50.576;12.364;2023-04-01T08:41:20;6.65;;;1.30;;
6735;SDS011;3405;50.576;12.364;2023-04-01T08:49:29;3.55;;;1.67;;
6735;SDS011;3405;50.576;12.364;2023-04-01T08:52:15;4.63;;;1.70;;
6735;SDS011;3405;50.576;12.364;2023-04-01T08:57:34;4.18;;;1.42;;
6735;SDS011;3405;50.576;12.364;2023-04-01T09:00:15;3.33;;;1.55;;
6735;SDS011;3405;50.576;12.364;2023-04-01T09:02:55;2.40;;;1.55;;
6735;SDS011;3405;50.576;12.364;2023-04-01T09:05:43;2.58;;;1.40;;
6735;SDS011;3405;50.576;12.364;2023-04-01T09:08:20;2.92;;;1.50;;
6735;SDS011;3405;50.576;12.364;2023-04-01T09:11:00;1.50;;;1.20;;
6735;SDS011;3405;50.576;12.364;2023-04-01T09:13:39;3.92;;;1.67;;
6735;SDS011;3405;50.576;12.364;2023-04-01T09:18:59;1.02;;;0.90;;
6735;SDS011;3405;50.576;12.364;2023-04-01T09:26:37;3.33;;;1.20;;
6735;SDS011;3405;50.576;12.364;2023-04-01T09:34:44;2.10;;;1.05;;
6735;SDS011;3405;50.576;12.364;2023-04-01T09:37:18;3.60;;;1.25;;
6735;SDS011;3405;50.576;12.364;2023-04-01T09:42:29;2.60;;;1.13;;
6735;SDS011;3405;50.576;12.364;2023-04-01T09:44:58;2.03;;;1.20;;
6735;SDS011;3405;50.576;12.364;2023-04-01T09:47:33;2.13;;;1.08;;
6735;SDS011;3405;50.576;12.364;2023-04-01T09:55:05;2.15;;;1.25;;
6735;SDS011;3405;50.576;12.364;2023-04-01T10:00:27;3.33;;;1.02;;
6735;SDS011;3405;50.576;12.364;2023-04-01T10:08:14;1.48;;;0.90;;
6735;SDS011;3405;50.576;12.364;2023-04-01T10:16:09;10.40;;;1.13;;
6735;SDS011;3405;50.576;12.364;2023-04-01T10:18:47;2.40;;;0.80;;
6735;SDS011;3405;50.576;12.364;2023-04-01T10:24:00;4.72;;;1.02;;
6735;SDS011;3405;50.576;12.364;2023-04-01T10:31:50;2.53;;;0.90;;
6735;SDS011;3405;50.576;12.364;2023-04-01T10:44:45;2.72;;;1.08;;
6735;SDS011;3405;50.576;12.364;2023-04-01T10:47:23;0.95;;;0.80;;
6735;SDS011;3405;50.576;12.364;2023-04-01T10:58:07;1.23;;;0.80;;
6735;SDS011;3405;50.576;12.364;2023-04-01T11:11:41;2.25;;;0.80;;
6735;SDS011;3405;50.576;12.364;2023-04-01T11:22:09;2.22;;;0.77;;
6735;SDS011;3405;50.576;12.364;2023-04-01T11:25:00;0.88;;;0.47;;
6735;SDS011;3405;50.576;12.364;2023-04-01T11:28:05;3.08;;;1.02;;
6735;SDS011;3405;50.576;12.364;2023-04-01T11:36:22;3.05;;;0.80;;
6735;SDS011;3405;50.576;12.364;2023-04-01T11:43:53;2.33;;;0.90;;
6735;SDS011;3405;50.576;12.364;2023-04-01T11:46:24;4.07;;;1.08;;
6735;SDS011;3405;50.576;12.364;2023-04-01T12:00:12;2.58;;;0.75;;
6735;SDS011;3405;50.576;12.364;2023-04-01T12:07:42;1.98;;;1.02;;
6735;SDS011;3405;50.576;12.364;2023-04-01T12:10:18;2.33;;;0.60;;
6735;SDS011;3405;50.576;12.364;2023-04-01T12:13:02;1.88;;;0.52;;
6735;SDS011;3405;50.576;12.364;2023-04-01T12:15:36;1.48;;;0.68;;
6735;SDS011;3405;50.576;12.364;2023-04-01T12:20:43;1.38;;;0.57;;
6735;SDS011;3405;50.576;12.364;2023-04-01T12:23:16;0.82;;;0.60;;
6735;SDS011;3405;50.576;12.364;2023-04-01T12:25:52;2.88;;;0.80;;
6735;SDS011;3405;50.576;12.364;2023-04-01T12:28:32;2.35;;;0.50;;
6735;SDS011;3405;50.576;12.364;2023-04-01T12:31:19;2.67;;;0.90;;
6735;SDS011;3405;50.576;12.364;2023-04-01T12:36:32;3.17;;;0.73;;
6735;SDS011;3405;50.576;12.364;2023-04-01T12:39:11;7.70;;;1.20;;
6735;SDS011;3405;50.576;12.364;2023-04-01T12:41:54;4.55;;;0.85;;
6735;SDS011;3405;50.576;12.364;2023-04-01T12:44:30;7.55;;;2.10;;
6735;SDS011;3405;50.576;12.364;2023-04-01T12:52:14;11.23;;;2.63;;
6735;SDS011;3405;50.576;12.364;2023-04-01T12:55:03;6.90;;;1.58;;
6735;SDS011;3405;50.576;12.364;2023-04-01T12:57:51;6.80;;;1.80;;
6735;SDS011;3405;50.576;12.364;2023-04-01T13:00:40;4.65;;;1.70;;
6735;SDS011;3405;50.576;12.364;2023-04-01T13:05:52;11.32;;;2.13;;
6735;SDS011;3405;50.576;12.364;2023-04-01T13:11:08;7.78;;;1.83;;
6735;SDS011;3405;50.576;12.364;2023-04-01T13:16:26;6.60;;;2.00;;
6735;SDS011;3405;50.576;12.364;2023-04-01T13:21:34;4.78;;;1.58;;
6735;SDS011;3405;50.576;12.364;2023-04-01T13:26:40;3.42;;;1.30;;
6735;SDS011;3405;50.576;12.364;2023-04-01T13:29:15;4.28;;;1.30;;
6735;SDS011;3405;50.576;12.364;2023-04-01T13:32:04;4.78;;;1.40;;
6735;SDS011;3405;50.576;12.364;2023-04-01T13:42:16;2.72;;;1.10;;
6735;SDS011;3405;50.576;12.364;2023-04-01T13:44:48;4.50;;;1.38;;
6735;SDS011;3405;50.576;12.364;2023-04-01T13:58:02;2.20;;;1.20;;
6735;SDS011;3405;50.576;12.364;2023-04-01T14:08:10;2.00;;;0.90;;
6735;SDS011;3405;50.576;12.364;2023-04-01T14:13:23;2.67;;;0.85;;
6735;SDS011;3405;50.576;12.364;2023-04-01T14:18:26;1.42;;;1.10;;
6735;SDS011;3405;50.576;12.364;2023-04-01T14:28:41;1.85;;;0.65;;
6735;SDS011;3405;50.576;12.364;2023-04-01T14:34:00;1.67;;;0.70;;
6735;SDS011;3405;50.576;12.364;2023-04-01T14:36:51;0.77;;;0.60;;
6735;SDS011;3405;50.576;12.364;2023-04-01T14:42:08;2.47;;;1.13;;
6735;SDS011;3405;50.576;12.364;2023-04-01T14:47:25;0.77;;;0.65;;
6735;SDS011;3405;50.576;12.364;2023-04-01T14:50:02;1.00;;;0.50;;
6735;SDS011;3405;50.576;12.364;2023-04-01T14:52:32;0.98;;;0.63;;
6735;SDS011;3405;50.576;12.364;2023-04-01T14:54:59;1.25;;;0.80;;
6735;SDS011;3405;50.576;12.364;2023-04-01T14:57:29;1.02;;;0.50;;
6735;SDS011;3405;50.576;12.364;2023-04-01T15:00:12;2.40;;;1.02;;
6735;SDS011;3405;50.576;12.364;2023-04-01T15:02:58;0.77;;;0.63;;
6735;SDS011;3405;50.576;12.364;2023-04-01T15:08:17;1.20;;;0.70;;
6735;SDS011;3405;50.576;12.364;2023-04-01T15:16:10;2.20;;;0.70;;
6735;SDS011;3405;50.576;12.364;2023-04-01T15:23:36;3.55;;;0.73;;
6735;SDS011;3405;50.576;12.364;2023-04-01T15:26:11;2.20;;;0.60;;
6735;SDS011;3405;50.576;12.364;2023-04-01T15:31:26;1.38;;;0.60;;
6735;SDS011;3405;50.576;12.364;2023-04-01T15:36:28;1.70;;;0.70;;
6735;SDS011;3405;50.576;12.364;2023-04-01T15:39:01;4.05;;;0.55;;
6735;SDS011;3405;50.576;12.364;2023-04-01T15:44:26;3.10;;;0.80;;
6735;SDS011;3405;50.576;12.364;2023-04-01T15:46:59;3.67;;;0.60;;
6735;SDS011;3405;50.576;12.364;2023-04-01T15:49:37;0.60;;;0.60;;
6735;SDS011;3405;50.576;12.364;2023-04-01T15:52:23;1.85;;;0.52;;
6735;SDS011;3405;50.576;12.364;2023-04-01T15:55:01;3.08;;;0.50;;
6735;SDS011;3405;50.576;12.364;2023-04-01T16:00:30;0.60;;;0.32;;
6735;SDS011;3405;50.576;12.364;2023-04-01T16:05:49;0.98;;;0.40;;
6735;SDS011;3405;50.576;12.364;2023-04-01T16:10:59;0.80;;;0.52;;
6735;SDS011;3405;50.576;12.364;2023-04-01T16:23:59;1.17;;;0.47;;
6735;SDS011;3405;50.576;12.364;2023-04-01T16:26:35;0.30;;;0.30;;
6735;SDS011;3405;50.576;12.364;2023-04-01T16:31:46;0.63;;;0.50;;
6735;SDS011;3405;50.576;12.364;2023-04-01T16:34:16;0.63;;;0.40;;
6735;SDS011;3405;50.576;12.364;2023-04-01T16:36:51;1.83;;;0.63;;
6735;SDS011;3405;50.576;12.364;2023-04-01T16:39:26;0.77;;;0.43;;
6735;SDS011;3405;50.576;12.364;2023-04-01T16:44:27;0.55;;;0.40;;
6735;SDS011;3405;50.576;12.364;2023-04-01T16:46:58;0.32;;;0.32;;
6735;SDS011;3405;50.576;12.364;2023-04-01T16:49:41;0.40;;;0.40;;
6735;SDS011;3405;50.576;12.364;2023-04-01T16:54:36;1.70;;;0.50;;
6735;SDS011;3405;50.576;12.364;2023-04-01T16:59:38;0.68;;;0.40;;
6735;SDS011;3405;50.576;12.364;2023-04-01T17:04:40;1.10;;;0.50;;
6735;SDS011;3405;50.576;12.364;2023-04-01T17:15:14;0.63;;;0.50;;
6735;SDS011;3405;50.576;12.364;2023-04-01T17:20:32;0.77;;;0.40;;
6735;SDS011;3405;50.576;12.364;2023-04-01T17:25:39;1.23;;;0.70;;
6735;SDS011;3405;50.576;12.364;2023-04-01T17:30:58;0.80;;;0.60;;
6735;SDS011;3405;50.576;12.364;2023-04-01T17:33:35;0.68;;;0.60;;
6735;SDS011;3405;50.576;12.364;2023-04-01T17:36:16;0.93;;;0.50;;
6735;SDS011;3405;50.576;12.364;2023-04-01T17:41:34;0.70;;;0.55;;
6735;SDS011;3405;50.576;12.364;2023-04-01T17:46:38;0.75;;;0.68;;
6735;SDS011;3405;50.576;12.364;2023-04-01T17:49:19;1.13;;;1.00;;
6735;SDS011;3405;50.576;12.364;2023-04-01T17:54:37;2.20;;;0.80;;
6735;SDS011;3405;50.576;12.364;2023-04-01T17:57:10;2.45;;;0.77;;
6735;SDS011;3405;50.576;12.364;2023-04-01T17:59:44;1.27;;;0.80;;
6735;SDS011;3405;50.576;12.364;2023-04-01T18:02:26;3.40;;;1.00;;
6735;SDS011;3405;50.576;12.364;2023-04-01T18:05:19;1.27;;;0.85;;
6735;SDS011;3405;50.576;12.364;2023-04-01T18:08:03;2.38;;;0.90;;
6735;SDS011;3405;50.576;12.364;2023-04-01T18:13:23;1.48;;;0.98;;
6735;SDS011;3405;50.576;12.364;2023-04-01T18:18:47;0.90;;;0.80;;
6735;SDS011;3405;50.576;12.364;2023-04-01T18:21:26;0.93;;;0.70;;
6735;SDS011;3405;50.576;12.364;2023-04-01T18:24:02;0.77;;;0.77;;
6735;SDS011;3405;50.576;12.364;2023-04-01T18:26:32;1.33;;;0.90;;
6735;SDS011;3405;50.576;12.364;2023-04-01T18:28:59;0.93;;;0.70;;
6735;SDS011;3405;50.576;12.364;2023-04-01T18:31:32;0.90;;;0.68;;
6735;SDS011;3405;50.576;12.364;2023-04-01T18:34:07;1.27;;;0.95;;
6735;SDS011;3405;50.576;12.364;2023-04-01T18:36:41;2.80;;;0.90;;
6735;SDS011;3405;50.576;12.364;2023-04-01T18:39:14;1.10;;;0.70;;
6735;SDS011;3405;50.576;12.364;2023-04-01T18:47:21;0.68;;;0.68;;
6735;SDS011;3405;50.576;12.364;2023-04-01T19:00:25;0.85;;;0.80;;
6735;SDS011;3405;50.576;12.364;2023-04-01T19:03:00;1.00;;;0.65;;
6735;SDS011;3405;50.576;12.364;2023-04-01T19:05:38;0.70;;;0.70;;
6735;SDS011;3405;50.576;12.364;2023-04-01T19:08:19;0.73;;;0.73;;
6735;SDS011;3405;50.576;12.364;2023-04-01T19:10:48;0.60;;;0.60;;
6735;SDS011;3405;50.576;12.364;2023-04-01T19:16:05;0.57;;;0.57;;
6735;SDS011;3405;50.576;12.364;2023-04-01T19:24:12;294.42;;;256.38;;
6735;SDS011;3405;50.576;12.364;2023-04-01T19:26:57;474.25;;;421.95;;
6735;SDS011;3405;50.576;12.364;2023-04-01T19:29:37;537.90;;;479.67;;
6735;SDS011;3405;50.576;12.364;2023-04-01T19:34:43;465.50;;;413.80;;
6735;SDS011;3405;50.576;12.364;2023-04-01T19:37:11;490.88;;;436.83;;
6735;SDS011;3405;50.576;12.364;2023-04-01T19:42:53;724.50;;;647.30;;
6735;SDS011;3405;50.576;12.364;2023-04-01T19:45:41;827.63;;;737.88;;
6735;SDS011;3405;50.576;12.364;2023-04-01T19:48:14;773.67;;;691.20;;
6735;SDS011;3405;50.576;12.364;2023-04-01T19:50:43;761.40;;;680.10;;
6735;SDS011;3405;50.576;12.364;2023-04-01T19:53:20;743.15;;;663.53;;
6735;SDS011;3405;50.576;12.364;2023-04-01T19:56:04;720.10;;;643.90;;
6735;SDS011;3405;50.576;12.364;2023-04-01T19:58:45;679.15;;;606.72;;
6735;SDS011;3405;50.576;12.364;2023-04-01T20:01:24;658.42;;;589.63;;
6735;SDS011;3405;50.576;12.364;2023-04-01T20:03:58;632.40;;;565.47;;
6735;SDS011;3405;50.576;12.364;2023-04-01T20:06:31;613.20;;;548.03;;
6735;SDS011;3405;50.576;12.364;2023-04-01T20:16:58;537.15;;;479.20;;
6735;SDS011;3405;50.576;12.364;2023-04-01T20:19:27;513.67;;;458.08;;
6735;SDS011;3405;50.576;12.364;2023-04-01T20:21:56;497.88;;;442.85;;
6735;SDS011;3405;50.576;12.364;2023-04-01T20:24:23;481.42;;;428.13;;
6735;SDS011;3405;50.576;12.364;2023-04-01T20:27:05;466.95;;;415.42;;
6735;SDS011;3405;50.576;12.364;2023-04-01T20:32:22;422.73;;;368.90;;
6735;SDS011;3405;50.576;12.364;2023-04-01T20:34:59;409.85;;;354.13;;
6735;SDS011;3405;50.576;12.364;2023-04-01T20:37:40;404.77;;;349.67;;
6735;SDS011;3405;50.576;12.364;2023-04-01T20:40:12;403.67;;;345.20;;
6735;SDS011;3405;50.576;12.364;2023-04-01T20:42:49;368.50;;;312.15;;
6735;SDS011;3405;50.576;12.364;2023-04-01T20:45:22;373.75;;;312.88;;
6735;SDS011;3405;50.576;12.364;2023-04-01T20:50:50;352.10;;;293.30;;
6735;SDS011;3405;50.576;12.364;2023-04-01T20:53:20;349.65;;;290.77;;
6735;SDS011;3405;50.576;12.364;2023-04-01T20:58:21;311.35;;;257.23;;
6735;SDS011;3405;50.576;12.364;2023-04-01T21:00:57;289.77;;;242.13;;
6735;SDS011;3405;50.576;12.364;2023-04-01T21:05:59;276.60;;;231.45;;
6735;SDS011;3405;50.576;12.364;2023-04-01T21:11:01;251.68;;;207.40;;
6735;SDS011;3405;50.576;12.364;2023-04-01T21:13:39;252.23;;;203.95;;
6735;SDS011;3405;50.576;12.364;2023-04-01T21:16:23;232.20;;;196.32;;
6735;SDS011;3405;50.576;12.364;2023-04-01T21:19:02;230.02;;;192.40;;
6735;SDS011;3405;50.576;12.364;2023-04-01T21:24:36;211.50;;;170.00;;
6735;SDS011;3405;50.576;12.364;2023-04-01T21:29:45;190.52;;;157.45;;
6735;SDS011;3405;50.576;12.364;2023-04-01T21:34:48;177.23;;;143.07;;
6735;SDS011;3405;50.576;12.364;2023-04-01T21:45:46;153.65;;;125.30;;
6735;SDS011;3405;50.576;12.364;2023-04-01T21:48:37;144.32;;;119.57;;
6735;SDS011;3405;50.576;12.364;2023-04-01T21:56:37;134.63;;;111.65;;
6735;SDS011;3405;50.576;12.364;2023-04-01T22:02:09;121.75;;;99.15;;